< Typhoon 197431 1974 Season Typhoon 197501 >
Typhoon 197432 (KIT)
General InformationTrack Information on Google Maps || Disaster Info.ResourceGoogle EarthGE AnimationAtom FeedGeoJSON
Detalied Best Track (Time Zone = UTC)
Year Month Day Hour Lat. Long. Pressure (hPa) Wind (kt) Class Image Chart
1974 12 18 00 8.0 141.0 1006 0 2 -- Chart
1974 12 18 06 8.5 139.4 1002 0 2 -- Chart
1974 12 18 12 9.0 137.6 1004 0 2 -- Chart
1974 12 18 18 9.7 136.0 1004 0 2 -- Chart
1974 12 19 00 10.5 134.5 1006 0 2 -- Chart
1974 12 19 06 11.4 133.0 1004 0 2 -- Chart
1974 12 19 12 11.9 131.0 1000 0 9 -- Chart
1974 12 19 18 11.4 129.4 1000 0 9 -- Chart
1974 12 20 00 11.0 128.0 1000 0 9 -- Chart
1974 12 20 06 10.8 126.2 1000 0 9 -- Chart
1974 12 20 12 10.5 124.6 1000 0 9 -- Chart
1974 12 20 18 10.7 123.2 1004 0 2 -- Chart
1974 12 21 00 11.1 122.6 1004 0 2 -- Chart
1974 12 21 06 11.2 121.5 1006 0 2 -- Chart
1974 12 21 12 11.7 120.4 1008 0 2 -- Chart
1974 12 21 18 11.9 119.0 1008 0 2 -- Chart
1974 12 22 00 11.9 118.0 1008 0 2 -- Chart
1974 12 22 06 11.5 117.0 1004 0 2 -- Chart
1974 12 22 12 10.8 116.0 1004 0 2 -- Chart
1974 12 22 18 10.0 114.8 1004 0 2 -- Chart
1974 12 23 00 9.5 113.4 1004 0 2 -- Chart
1974 12 23 06 9.3 112.8 1000 0 9 -- Chart
1974 12 23 12 9.5 110.3 996 0 9 -- Chart
1974 12 23 18 9.4 109.7 996 0 9 -- Chart
1974 12 24 00 9.3 109.1 1000 0 9 -- Chart
1974 12 24 06 8.9 108.0 1004 0 2 -- Chart
1974 12 24 12 8.5 107.0 1008 0 2 -- Chart
Japan Meteorological Agency Best Track Data | Correction Date : 1989-06-01
< Typhoon 197431 1974 Season Typhoon 197501 >

Help